Abbotsford, Canada
Current Conditions -  °F | °C
As of 8:00 PM on Tuesday 21 Oct 2014 (Local Time) from CYXX Reporting Station
Light Rain Light Rain  
Wind Chill: 57°   Ceiling: 4000
Heat Index: 57°   Visibility: 15mi
Dew Point: 48°   Wind: 12mph
Humidity: 72%   Direction: 150°SSE
Pressure: 29.77"   Gusts: 20mph
Location:  49.05°N, 122.33°W
Report Text: CYXX 220300Z 15010G17KT 15SM -RA BKN040 OVC090 14/09 A2977 RMK SC7AS1 SLP081 DENSITY ALT 200FT
Loading
Personal Weather Stations






























Interactive Weather Map
Tropical Storm Tracking
New forecast layout! Learn more

10-Day Weather Forecast

Advertisements
Track Severe Weather on mobile